ETH951 HAAB-DNAA
Flight info
| Callsign | ETH951 |
|---|---|
| Flight time | N/A |
| Altitude | 38000 |
| Route | BRO3A BRO DCT KAFIA UA410 IPISU UQ200 GADUV UT475 ABC |
| Aircraft | A359/H-SPCMNB2ABCDEFGHIJLMNOP/LB1D1 |
Departure
| Time | N/A |
|---|---|
| Airport | Addis Ababa Bole International Airport (HAAB) |
Arrival
| Time | 2026-04-21 17:01 |
|---|---|
| Airport | Nnamdi Azikiwe International Airport (DNAA) |
| Time | Latitude | Longitude | Altitude | Speed | Heading |
|---|---|---|---|---|---|
| 2026-04-21 16:07 | 7.21147 | 13.19903 | 37786 ft | 485 kts | 266° |
| 2026-04-21 16:07 | 7.21019 | 13.16504 | 37791 ft | 485 kts | 266° |
| 2026-04-21 16:08 | 7.20637 | 13.06324 | 37787 ft | 484 kts | 267° |
| 2026-04-21 16:09 | 7.20381 | 12.99540 | 37785 ft | 483 kts | 267° |
| 2026-04-21 16:09 | 7.20125 | 12.92813 | 37786 ft | 483 kts | 267° |
| 2026-04-21 16:10 | 7.19866 | 12.86046 | 37784 ft | 483 kts | 267° |
| 2026-04-21 16:10 | 7.19608 | 12.79281 | 37784 ft | 483 kts | 267° |
| 2026-04-21 16:11 | 7.19347 | 12.72502 | 37785 ft | 485 kts | 266° |
| 2026-04-21 16:11 | 7.19084 | 12.65696 | 37785 ft | 487 kts | 266° |
| 2026-04-21 16:12 | 7.18865 | 12.60029 | 37797 ft | 487 kts | 266° |
| 2026-04-21 16:12 | 7.18557 | 12.52109 | 37795 ft | 487 kts | 266° |
| 2026-04-21 16:13 | 7.18290 | 12.45286 | 37808 ft | 487 kts | 266° |
| 2026-04-21 16:13 | 7.18025 | 12.38500 | 37808 ft | 487 kts | 266° |
| 2026-04-21 16:14 | 7.17757 | 12.31696 | 37812 ft | 486 kts | 266° |
| 2026-04-21 16:14 | 7.17488 | 12.24901 | 37813 ft | 485 kts | 266° |
| 2026-04-21 16:15 | 7.17218 | 12.18103 | 37822 ft | 485 kts | 266° |
| 2026-04-21 16:15 | 7.16947 | 12.11315 | 37823 ft | 485 kts | 266° |
| 2026-04-21 16:16 | 7.16676 | 12.04519 | 37824 ft | 485 kts | 266° |
| 2026-04-21 16:16 | 7.16406 | 11.97770 | 37815 ft | 485 kts | 266° |
| 2026-04-21 16:17 | 7.16132 | 11.90977 | 37815 ft | 485 kts | 266° |
| 2026-04-21 16:17 | 7.16146 | 11.84199 | 37797 ft | 486 kts | 275° |
| 2026-04-21 16:18 | 7.17813 | 11.77599 | 37796 ft | 488 kts | 288° |
| 2026-04-21 16:18 | 7.20242 | 11.71204 | 37780 ft | 489 kts | 291° |
| 2026-04-21 16:19 | 7.22860 | 11.64926 | 37781 ft | 489 kts | 291° |
| 2026-04-21 16:19 | 7.25491 | 11.58605 | 37766 ft | 489 kts | 291° |
| 2026-04-21 16:20 | 7.28091 | 11.52252 | 37765 ft | 489 kts | 291° |
| 2026-04-21 16:20 | 7.30671 | 11.45899 | 37766 ft | 489 kts | 291° |
| 2026-04-21 16:21 | 7.33228 | 11.39592 | 37765 ft | 489 kts | 290° |
| 2026-04-21 16:21 | 7.35802 | 11.33237 | 37765 ft | 490 kts | 290° |
| 2026-04-21 16:22 | 7.38378 | 11.26877 | 37769 ft | 490 kts | 291° |
| 2026-04-21 16:22 | 7.40957 | 11.20511 | 37770 ft | 490 kts | 291° |
| 2026-04-21 16:23 | 7.43517 | 11.14189 | 37768 ft | 490 kts | 291° |
| 2026-04-21 16:23 | 7.46095 | 11.07819 | 37747 ft | 489 kts | 290° |
| 2026-04-21 16:24 | 7.48655 | 11.01492 | 37755 ft | 487 kts | 290° |
| 2026-04-21 16:24 | 7.51217 | 10.95159 | 37759 ft | 487 kts | 290° |
| 2026-04-21 16:25 | 7.53772 | 10.88837 | 37752 ft | 487 kts | 290° |
| 2026-04-21 16:25 | 7.56323 | 10.82522 | 37755 ft | 487 kts | 290° |
| 2026-04-21 16:26 | 7.58860 | 10.76238 | 37765 ft | 487 kts | 290° |
| 2026-04-21 16:26 | 7.61411 | 10.69918 | 37738 ft | 487 kts | 290° |
| 2026-04-21 16:27 | 7.63964 | 10.63591 | 37736 ft | 487 kts | 290° |
| 2026-04-21 16:27 | 7.66520 | 10.57252 | 37735 ft | 487 kts | 290° |
| 2026-04-21 16:28 | 7.69051 | 10.50974 | 37726 ft | 485 kts | 290° |
| 2026-04-21 16:28 | 7.71593 | 10.44663 | 37729 ft | 485 kts | 290° |
| 2026-04-21 16:29 | 7.73702 | 10.39423 | 37720 ft | 485 kts | 290° |
| 2026-04-21 16:29 | 7.76669 | 10.32058 | 37719 ft | 485 kts | 290° |
| 2026-04-21 16:30 | 7.79200 | 10.25755 | 37703 ft | 485 kts | 290° |
| 2026-04-21 16:30 | 7.81730 | 10.19452 | 37707 ft | 485 kts | 290° |
| 2026-04-21 16:31 | 7.84240 | 10.13200 | 37706 ft | 483 kts | 290° |
| 2026-04-21 16:31 | 7.86763 | 10.06912 | 37706 ft | 483 kts | 290° |
| 2026-04-21 16:32 | 7.89288 | 10.00621 | 37705 ft | 483 kts | 290° |
| 2026-04-21 16:32 | 7.91812 | 9.94327 | 37712 ft | 483 kts | 290° |
| 2026-04-21 16:33 | 7.94335 | 9.88043 | 37703 ft | 483 kts | 290° |
| 2026-04-21 16:33 | 7.96843 | 9.81780 | 37701 ft | 483 kts | 290° |
| 2026-04-21 16:34 | 7.99362 | 9.75487 | 37706 ft | 483 kts | 290° |
| 2026-04-21 16:34 | 8.01457 | 9.70253 | 37708 ft | 483 kts | 290° |
| 2026-04-21 16:35 | 8.03978 | 9.63957 | 37709 ft | 483 kts | 290° |
| 2026-04-21 16:35 | 8.06903 | 9.56645 | 37707 ft | 483 kts | 290° |
| 2026-04-21 16:36 | 8.09013 | 9.51366 | 37708 ft | 483 kts | 290° |
| 2026-04-21 16:36 | 8.11512 | 9.45110 | 37705 ft | 484 kts | 290° |
| 2026-04-21 16:37 | 8.13057 | 9.41242 | 37707 ft | 484 kts | 290° |
| 2026-04-21 16:37 | 8.15580 | 9.34924 | 37713 ft | 484 kts | 290° |
| 2026-04-21 16:38 | 8.18098 | 9.28616 | 37710 ft | 484 kts | 290° |
| 2026-04-21 16:38 | 8.20618 | 9.22300 | 37714 ft | 484 kts | 290° |
| 2026-04-21 16:39 | 8.23132 | 9.15994 | 37719 ft | 484 kts | 290° |
| 2026-04-21 16:39 | 8.25635 | 9.09711 | 37603 ft | 485 kts | 290° |
| 2026-04-21 16:39 | 8.26890 | 9.06560 | 37343 ft | 484 kts | 290° |
| 2026-04-21 16:40 | 8.28149 | 9.03399 | 37079 ft | 484 kts | 290° |
| 2026-04-21 16:40 | 8.29408 | 9.00244 | 36828 ft | 485 kts | 290° |
| 2026-04-21 16:40 | 8.30670 | 8.97084 | 36579 ft | 485 kts | 290° |
| 2026-04-21 16:40 | 8.31931 | 8.93918 | 36332 ft | 485 kts | 290° |
| 2026-04-21 16:41 | 8.33190 | 8.90756 | 36081 ft | 486 kts | 290° |
| 2026-04-21 16:41 | 8.34453 | 8.87584 | 35864 ft | 486 kts | 290° |
| 2026-04-21 16:41 | 8.35713 | 8.84420 | 35551 ft | 485 kts | 290° |
| 2026-04-21 16:41 | 8.36948 | 8.81318 | 34979 ft | 482 kts | 290° |
| 2026-04-21 16:42 | 8.38205 | 8.78166 | 34320 ft | 482 kts | 291° |
| 2026-04-21 16:42 | 8.39457 | 8.75018 | 33540 ft | 484 kts | 291° |
| 2026-04-21 16:42 | 8.40713 | 8.71846 | 32703 ft | 485 kts | 291° |
| 2026-04-21 16:42 | 8.41968 | 8.68672 | 31908 ft | 486 kts | 292° |
| 2026-04-21 16:43 | 8.43219 | 8.65506 | 31130 ft | 486 kts | 292° |
| 2026-04-21 16:43 | 8.44457 | 8.62377 | 30394 ft | 484 kts | 292° |
| 2026-04-21 16:43 | 8.45704 | 8.59224 | 29620 ft | 483 kts | 293° |
| 2026-04-21 16:43 | 8.46951 | 8.56076 | 28742 ft | 482 kts | 293° |
| 2026-04-21 16:44 | 8.48191 | 8.52945 | 28009 ft | 478 kts | 292° |
| 2026-04-21 16:44 | 8.49421 | 8.49835 | 27378 ft | 474 kts | 292° |
| 2026-04-21 16:44 | 8.50641 | 8.46752 | 26775 ft | 470 kts | 292° |
| 2026-04-21 16:44 | 8.51849 | 8.43696 | 26166 ft | 467 kts | 292° |
| 2026-04-21 16:45 | 8.53051 | 8.40653 | 25547 ft | 465 kts | 292° |
| 2026-04-21 16:45 | 8.54246 | 8.37628 | 24936 ft | 463 kts | 292° |
| 2026-04-21 16:45 | 8.55436 | 8.34614 | 24327 ft | 461 kts | 292° |
| 2026-04-21 16:45 | 8.56610 | 8.31640 | 23750 ft | 460 kts | 292° |
| 2026-04-21 16:46 | 8.57797 | 8.28635 | 23118 ft | 459 kts | 292° |
| 2026-04-21 16:46 | 8.58977 | 8.25641 | 22463 ft | 458 kts | 292° |
| 2026-04-21 16:46 | 8.60156 | 8.22665 | 21867 ft | 455 kts | 292° |
| 2026-04-21 16:46 | 8.61334 | 8.19706 | 21260 ft | 451 kts | 292° |
| 2026-04-21 16:47 | 8.62505 | 8.16770 | 20666 ft | 448 kts | 292° |
| 2026-04-21 16:47 | 8.63667 | 8.13858 | 20061 ft | 446 kts | 292° |
| 2026-04-21 16:47 | 8.64827 | 8.10953 | 19478 ft | 443 kts | 292° |
| 2026-04-21 16:47 | 8.66061 | 8.08112 | 18894 ft | 440 kts | 295° |
| 2026-04-21 16:48 | 8.67367 | 8.05359 | 18294 ft | 438 kts | 296° |
| 2026-04-21 16:48 | 8.68730 | 8.02601 | 17638 ft | 437 kts | 298° |
| 2026-04-21 16:48 | 8.70324 | 7.99974 | 16984 ft | 439 kts | 306° |
| 2026-04-21 16:48 | 8.72185 | 7.97518 | 16332 ft | 440 kts | 309° |
| 2026-04-21 16:49 | 8.74097 | 7.95107 | 15721 ft | 439 kts | 310° |
| 2026-04-21 16:49 | 8.75998 | 7.92698 | 15167 ft | 436 kts | 310° |
| 2026-04-21 16:49 | 8.77940 | 7.90362 | 14679 ft | 433 kts | 313° |
| 2026-04-21 16:49 | 8.79968 | 7.88126 | 14249 ft | 430 kts | 315° |
| 2026-04-21 16:50 | 8.82003 | 7.85915 | 13804 ft | 428 kts | 315° |
| 2026-04-21 16:50 | 8.83994 | 7.83744 | 13359 ft | 426 kts | 315° |
| 2026-04-21 16:50 | 8.85996 | 7.81551 | 12809 ft | 423 kts | 315° |
| 2026-04-21 16:50 | 8.87974 | 7.79374 | 12261 ft | 418 kts | 315° |
| 2026-04-21 16:51 | 8.89931 | 7.77211 | 11720 ft | 413 kts | 315° |
| 2026-04-21 16:51 | 8.91832 | 7.75097 | 11200 ft | 395 kts | 315° |
| 2026-04-21 16:51 | 8.93617 | 7.73094 | 10709 ft | 372 kts | 315° |
| 2026-04-21 16:51 | 8.95287 | 7.71197 | 10328 ft | 349 kts | 315° |
| 2026-04-21 16:52 | 8.96842 | 7.69412 | 10008 ft | 328 kts | 315° |
| 2026-04-21 16:52 | 8.98297 | 7.67721 | 9685 ft | 309 kts | 315° |
| 2026-04-21 16:52 | 8.99677 | 7.66100 | 9333 ft | 301 kts | 315° |
| 2026-04-21 16:52 | 9.01039 | 7.64507 | 8986 ft | 299 kts | 315° |
| 2026-04-21 16:53 | 9.02413 | 7.62942 | 8648 ft | 296 kts | 314° |
| 2026-04-21 16:53 | 9.03811 | 7.61399 | 8307 ft | 296 kts | 315° |
| 2026-04-21 16:53 | 9.05200 | 7.59874 | 7974 ft | 293 kts | 315° |
| 2026-04-21 16:53 | 9.06564 | 7.58388 | 7648 ft | 291 kts | 315° |
| 2026-04-21 16:54 | 9.07947 | 7.56899 | 7307 ft | 290 kts | 315° |
| 2026-04-21 16:54 | 9.09328 | 7.55407 | 6955 ft | 290 kts | 314° |
| 2026-04-21 16:54 | 9.10716 | 7.53927 | 6612 ft | 290 kts | 315° |
| 2026-04-21 16:54 | 9.12109 | 7.52461 | 6273 ft | 288 kts | 315° |
| 2026-04-21 16:55 | 9.13500 | 7.51021 | 5910 ft | 285 kts | 315° |
| 2026-04-21 16:55 | 9.14885 | 7.49588 | 5546 ft | 283 kts | 313° |
| 2026-04-21 16:55 | 9.16119 | 7.48047 | 5144 ft | 281 kts | 300° |
| 2026-04-21 16:55 | 9.16837 | 7.46229 | 4768 ft | 278 kts | 284° |
| 2026-04-21 16:56 | 9.17316 | 7.44361 | 4386 ft | 270 kts | 282° |
| 2026-04-21 16:56 | 9.17723 | 7.42538 | 4026 ft | 261 kts | 280° |
| 2026-04-21 16:56 | 9.17970 | 7.40760 | 3663 ft | 250 kts | 268° |
| 2026-04-21 16:56 | 9.17528 | 7.39136 | 3451 ft | 234 kts | 240° |
| 2026-04-21 16:57 | 9.16625 | 7.37827 | 3369 ft | 221 kts | 229° |
| 2026-04-21 16:57 | 9.15529 | 7.36828 | 3275 ft | 209 kts | 213° |
| 2026-04-21 16:57 | 9.14347 | 7.36054 | 3169 ft | 194 kts | 214° |
| 2026-04-21 16:57 | 9.13276 | 7.35294 | 3054 ft | 184 kts | 214° |
| 2026-04-21 16:58 | 9.12245 | 7.34546 | 3028 ft | 176 kts | 214° |
| 2026-04-21 16:58 | 9.11291 | 7.33854 | 3023 ft | 166 kts | 214° |
| 2026-04-21 16:58 | 9.10353 | 7.33185 | 3009 ft | 163 kts | 213° |
| 2026-04-21 16:58 | 9.09443 | 7.32538 | 2794 ft | 155 kts | 214° |
| 2026-04-21 16:59 | 9.08579 | 7.31924 | 2611 ft | 149 kts | 214° |
| 2026-04-21 16:59 | 9.07733 | 7.31324 | 2403 ft | 148 kts | 214° |
| 2026-04-21 16:59 | 9.06892 | 7.30737 | 2225 ft | 148 kts | 213° |
| 2026-04-21 16:59 | 9.06045 | 7.30146 | 2014 ft | 148 kts | 214° |
| 2026-04-21 17:00 | 9.05207 | 7.29553 | 1847 ft | 146 kts | 214° |
| 2026-04-21 17:00 | 9.04389 | 7.28945 | 1693 ft | 146 kts | 216° |
| 2026-04-21 17:00 | 9.03842 | 7.28543 | 1522 ft | 146 kts | 215° |
| 2026-04-21 17:00 | 9.02715 | 7.27757 | 1329 ft | 149 kts | 214° |
| 2026-04-21 17:01 | 9.01868 | 7.27154 | 1153 ft | 147 kts | 215° |
| 2026-04-21 17:01 | 9.01080 | 7.26599 | 1119 ft | 123 kts | 215° |
| 2026-04-21 17:01 | 9.00551 | 7.26225 | 1110 ft | 75 kts | 215° |
| 2026-04-21 17:01 | 9.00283 | 7.26036 | 1109 ft | 27 kts | 205° |
| 2026-04-21 17:02 | 9.00135 | 7.26025 | 1108 ft | 15 kts | 169° |
| 2026-04-21 17:02 | 9.00107 | 7.26106 | 1107 ft | 14 kts | 63° |
| 2026-04-21 17:02 | 9.00181 | 7.26170 | 1105 ft | 14 kts | 36° |
| 2026-04-21 17:02 | 9.00263 | 7.26229 | 1107 ft | 14 kts | 34° |
| 2026-04-21 17:03 | 9.00345 | 7.26285 | 1110 ft | 14 kts | 34° |
| 2026-04-21 17:03 | 9.00432 | 7.26347 | 1108 ft | 16 kts | 36° |
| 2026-04-21 17:03 | 9.00523 | 7.26412 | 1113 ft | 12 kts | 34° |
| 2026-04-21 17:03 | 9.00589 | 7.26459 | 1112 ft | 9 kts | 41° |
| 2026-04-21 17:04 | 9.00605 | 7.26495 | 1115 ft | 8 kts | 83° |
| 2026-04-21 17:04 | 9.00595 | 7.26524 | 1114 ft | 5 kts | 121° |
| 2026-04-21 17:04 | 9.00577 | 7.26547 | 1114 ft | 3 kts | 128° |
| 2026-04-21 17:04 | 9.00554 | 7.26574 | 1116 ft | 7 kts | 134° |
| 2026-04-21 17:05 | 9.00504 | 7.26611 | 1116 ft | 11 kts | 150° |
| 2026-04-21 17:05 | 9.00447 | 7.26656 | 1135 ft | 9 kts | 119° |
| 2026-04-21 17:05 | 9.00458 | 7.26722 | 1137 ft | 12 kts | 68° |
| 2026-04-21 17:05 | 9.00485 | 7.26793 | 1136 ft | 10 kts | 70° |
| 2026-04-21 17:06 | 9.00523 | 7.26830 | 1136 ft | 7 kts | 8° |
| 2026-04-21 17:06 | 9.00549 | 7.26831 | 1136 ft | 0 kts | 2° |
| 2026-04-21 17:06 | 9.00561 | 7.26831 | 1136 ft | 5 kts | 0° |
| 2026-04-21 17:06 | 9.00574 | 7.26831 | 1136 ft | 0 kts | 0° |